createdAt,value
2017-07-19T00:00:29.276Z,17.68
2017-07-19T00:01:38.809Z,17.55
2017-07-19T00:02:48.863Z,17.55
2017-07-19T00:03:58.081Z,17.55
2017-07-19T00:05:07.287Z,17.68
2017-07-19T00:06:16.517Z,17.59
2017-07-19T00:07:25.402Z,17.66
2017-07-19T00:08:35.081Z,17.49
2017-07-19T00:09:43.973Z,17.52
2017-07-19T00:10:53.184Z,17.51
2017-07-19T00:12:02.409Z,17.43
2017-07-19T00:13:11.940Z,17.4
2017-07-19T00:14:20.872Z,17.38
2017-07-19T00:15:29.756Z,17.48
2017-07-19T00:16:38.965Z,17.59
2017-07-19T00:17:48.494Z,17.56
2017-07-19T00:18:57.714Z,17.48
2017-07-19T00:20:07.350Z,17.41
2017-07-19T00:21:16.243Z,17.37
2017-07-19T00:22:26.103Z,17.4
2017-07-19T00:23:35.961Z,17.28
2017-07-19T00:24:45.179Z,17.26
2017-07-19T00:25:55.012Z,17.26
2017-07-19T00:27:04.222Z,17.3
2017-07-19T00:28:14.087Z,17.25
2017-07-19T00:29:22.984Z,17.26
2017-07-19T00:30:32.190Z,17.28
2017-07-19T00:31:41.832Z,17.23
2017-07-19T00:32:51.037Z,17.16
2017-07-19T00:34:00.247Z,17.04
2017-07-19T00:35:10.105Z,17.14
2017-07-19T00:36:19.316Z,17.14
2017-07-19T00:37:28.904Z,17.14
2017-07-19T00:38:38.113Z,17.06
2017-07-19T00:39:47.652Z,17.15
2017-07-19T00:40:57.507Z,17.06
2017-07-19T00:42:06.715Z,17.06
2017-07-19T00:43:16.782Z,16.97
2017-07-19T00:44:26.328Z,17.03
2017-07-19T00:45:35.860Z,17.03
2017-07-19T00:46:45.070Z,16.97
2017-07-19T00:47:54.602Z,16.97
2017-07-19T00:49:03.862Z,16.98
2017-07-19T00:50:13.395Z,16.94
2017-07-19T00:51:22.924Z,16.91
2017-07-19T00:52:32.458Z,16.93
2017-07-19T00:53:41.667Z,16.97
2017-07-19T00:54:51.174Z,16.85
2017-07-19T00:56:00.722Z,17
2017-07-19T00:57:10.586Z,16.94
2017-07-19T00:58:19.799Z,16.94
2017-07-19T00:59:29.005Z,16.86
2017-07-19T01:00:38.584Z,16.91
2017-07-19T01:01:47.469Z,16.85
2017-07-19T01:02:56.680Z,16.91
2017-07-19T01:04:06.214Z,16.94
2017-07-19T01:05:15.430Z,16.88
2017-07-19T01:06:24.570Z,16.85
2017-07-19T01:07:33.450Z,16.86
2017-07-19T01:08:42.980Z,16.82
2017-07-19T01:09:52.198Z,16.71
2017-07-19T01:11:02.060Z,16.75
2017-07-19T01:12:12.121Z,16.71
2017-07-19T01:13:21.333Z,16.73
2017-07-19T01:14:30.557Z,16.68
2017-07-19T01:15:40.086Z,16.7
2017-07-19T01:16:49.615Z,16.58
2017-07-19T01:17:59.147Z,16.56
2017-07-19T01:19:09.003Z,16.48
2017-07-19T01:20:18.874Z,16.6
2017-07-19T01:21:28.085Z,16.71
2017-07-19T01:22:37.294Z,16.58
2017-07-19T01:23:46.819Z,16.57
2017-07-19T01:24:56.352Z,16.58
2017-07-19T01:26:05.889Z,16.63
2017-07-19T01:27:15.097Z,16.46
2017-07-19T01:28:23.982Z,16.56
2017-07-19T01:29:34.315Z,16.52
2017-07-19T01:30:43.519Z,16.5
2017-07-19T01:31:52.740Z,16.49
2017-07-19T01:33:02.926Z,16.43
2017-07-19T01:34:13.105Z,16.38
2017-07-19T01:35:22.614Z,16.31
2017-07-19T01:36:31.500Z,16.34
2017-07-19T01:37:40.435Z,16.33
2017-07-19T01:38:49.638Z,16.34
2017-07-19T01:39:58.520Z,16.3
2017-07-19T01:41:07.810Z,16.33
2017-07-19T01:42:17.341Z,16.31
2017-07-19T01:43:26.550Z,16.38
2017-07-19T01:44:35.757Z,16.35
2017-07-19T01:45:45.283Z,16.28
2017-07-19T01:46:54.494Z,16.27
2017-07-19T01:48:03.708Z,16.3
2017-07-19T01:49:13.885Z,16.34
2017-07-19T01:50:23.092Z,16.27
2017-07-19T01:51:32.638Z,16.24
2017-07-19T01:52:43.291Z,16.24
2017-07-19T01:53:52.498Z,16.25
2017-07-19T01:55:01.722Z,16.11
2017-07-19T01:56:11.341Z,16.25
2017-07-19T01:57:20.872Z,16.24
2017-07-19T01:58:30.287Z,16.23
2017-07-19T01:59:39.506Z,16.21
2017-07-19T02:00:48.729Z,16.07
2017-07-19T02:01:57.619Z,16.15
2017-07-19T02:03:07.798Z,16.21
2017-07-19T02:04:17.380Z,16.12
2017-07-19T02:05:26.269Z,16.12
2017-07-19T02:06:35.188Z,16.14
2017-07-19T02:07:45.048Z,16.17
2017-07-19T02:08:54.598Z,16.15
2017-07-19T02:10:04.106Z,16.11
2017-07-19T02:11:13.644Z,16.08
2017-07-19T02:12:22.530Z,16.05
2017-07-19T02:13:31.422Z,16.04
2017-07-19T02:14:40.628Z,16.01
2017-07-19T02:15:49.906Z,16
2017-07-19T02:16:59.126Z,16
2017-07-19T02:18:08.335Z,15.96
2017-07-19T02:19:17.545Z,15.97
2017-07-19T02:20:27.075Z,16.04
2017-07-19T02:21:36.759Z,15.97
2017-07-19T02:22:46.613Z,15.97
2017-07-19T02:23:55.819Z,15.94
2017-07-19T02:25:05.028Z,15.86
2017-07-19T02:26:14.560Z,16
2017-07-19T02:27:24.238Z,15.93
2017-07-19T02:28:33.444Z,15.96
2017-07-19T02:29:42.649Z,15.89
2017-07-19T02:30:51.540Z,15.8
2017-07-19T02:32:01.400Z,15.9
2017-07-19T02:33:10.769Z,15.87
2017-07-19T02:34:20.304Z,15.86
2017-07-19T02:35:29.513Z,15.75
2017-07-19T02:36:39.057Z,15.83
2017-07-19T02:37:48.597Z,15.75
2017-07-19T02:38:58.756Z,15.74
2017-07-19T02:40:08.624Z,15.78
2017-07-19T02:41:17.854Z,15.82
2017-07-19T02:42:28.035Z,15.82
2017-07-19T02:43:37.895Z,15.78
2017-07-19T02:44:47.570Z,15.84
2017-07-19T02:45:57.574Z,15.8
2017-07-19T02:47:07.580Z,15.75
2017-07-19T02:48:17.226Z,15.72
2017-07-19T02:49:26.877Z,15.69
2017-07-19T02:50:36.236Z,15.69
2017-07-19T02:51:46.560Z,15.64
2017-07-19T02:52:56.202Z,15.64
2017-07-19T02:54:06.525Z,15.65
2017-07-19T02:55:16.167Z,15.71
2017-07-19T02:56:25.682Z,15.69
2017-07-19T02:57:34.667Z,15.68
2017-07-19T02:58:43.891Z,15.69
2017-07-19T02:59:53.757Z,15.62
2017-07-19T03:01:03.615Z,15.65
2017-07-19T03:02:13.623Z,15.67
2017-07-19T03:03:23.478Z,15.64
2017-07-19T03:04:33.023Z,15.59
2017-07-19T03:05:41.939Z,15.56
2017-07-19T03:06:51.471Z,15.56
2017-07-19T03:08:00.683Z,15.57
2017-07-19T03:09:10.212Z,15.57
2017-07-19T03:10:20.067Z,15.56
2017-07-19T03:11:29.919Z,15.54
2017-07-19T03:12:39.450Z,15.51
2017-07-19T03:13:49.354Z,15.53
2017-07-19T03:14:58.560Z,15.53
2017-07-19T03:16:08.423Z,15.47
2017-07-19T03:17:18.280Z,15.51
2017-07-19T03:18:27.514Z,15.51
2017-07-19T03:19:37.247Z,15.36
2017-07-19T03:20:46.458Z,15.43
2017-07-19T03:21:55.666Z,15.38
2017-07-19T03:23:05.199Z,15.39
2017-07-19T03:24:14.732Z,15.36
2017-07-19T03:25:25.059Z,15.39
2017-07-19T03:26:34.928Z,15.41
2017-07-19T03:27:44.461Z,15.43
2017-07-19T03:28:53.997Z,15.39
2017-07-19T03:30:03.552Z,15.43
2017-07-19T03:31:13.243Z,15.29
2017-07-19T03:32:23.096Z,15.36
2017-07-19T03:33:32.631Z,15.34
2017-07-19T03:34:42.175Z,15.43
2017-07-19T03:35:51.383Z,15.41
2017-07-19T03:37:00.426Z,15.39
2017-07-19T03:38:09.644Z,15.39
2017-07-19T03:39:19.203Z,15.41
2017-07-19T03:40:28.409Z,15.38
2017-07-19T03:41:37.938Z,15.25
2017-07-19T03:42:47.307Z,15.27
2017-07-19T03:43:56.838Z,15.29
2017-07-19T03:45:06.047Z,15.29
2017-07-19T03:46:15.254Z,15.34
2017-07-19T03:47:25.124Z,15.23
2017-07-19T03:48:34.496Z,15.29
2017-07-19T03:49:43.704Z,15.35
2017-07-19T03:50:52.910Z,15.43
2017-07-19T03:52:03.423Z,15.27
2017-07-19T03:53:13.606Z,15.29
2017-07-19T03:54:22.492Z,15.38
2017-07-19T03:55:32.361Z,15.31
2017-07-19T03:56:42.550Z,15.23
2017-07-19T03:57:52.402Z,15.41
2017-07-19T03:59:01.959Z,15.38
2017-07-19T04:00:11.899Z,15.32
2017-07-19T04:01:21.134Z,15.39
2017-07-19T04:02:30.667Z,15.34
2017-07-19T04:03:40.204Z,15.32
2017-07-19T04:04:50.063Z,15.29
2017-07-19T04:05:59.321Z,15.25
2017-07-19T04:07:09.181Z,15.29
2017-07-19T04:08:18.387Z,15.31
2017-07-19T04:09:28.259Z,15.31
2017-07-19T04:10:37.469Z,15.28
2017-07-19T04:11:47.096Z,15.27
2017-07-19T04:12:56.946Z,15.25
2017-07-19T04:14:06.478Z,15.28
2017-07-19T04:15:16.010Z,15.32
2017-07-19T04:16:25.552Z,15.34
2017-07-19T04:17:35.138Z,15.27
2017-07-19T04:18:44.347Z,15.29
2017-07-19T04:19:53.554Z,15.28
2017-07-19T04:21:02.439Z,15.31
2017-07-19T04:22:11.971Z,15.28
2017-07-19T04:23:21.224Z,15.29
2017-07-19T04:24:30.433Z,15.29
2017-07-19T04:25:39.963Z,15.27
2017-07-19T04:26:49.494Z,15.34
2017-07-19T04:27:59.345Z,15.38
2017-07-19T04:29:08.233Z,15.28
2017-07-19T04:30:17.772Z,15.23
2017-07-19T04:31:26.994Z,15.32
2017-07-19T04:32:36.203Z,15.32
2017-07-19T04:33:45.090Z,15.38
2017-07-19T04:34:54.940Z,15.38
2017-07-19T04:36:04.145Z,15.41
2017-07-19T04:37:13.354Z,15.36
2017-07-19T04:38:22.568Z,15.36
2017-07-19T04:39:32.426Z,15.5
2017-07-19T04:40:42.065Z,15.49
2017-07-19T04:41:51.275Z,15.5
2017-07-19T04:43:00.805Z,15.5
2017-07-19T04:44:10.021Z,15.51
2017-07-19T04:45:19.556Z,15.57
2017-07-19T04:46:28.744Z,15.51
2017-07-19T04:47:37.626Z,15.53
2017-07-19T04:48:46.508Z,15.5
2017-07-19T04:49:55.715Z,15.56
2017-07-19T04:51:05.635Z,15.54
2017-07-19T04:52:15.865Z,15.56
2017-07-19T04:53:26.046Z,15.57
2017-07-19T04:54:35.589Z,15.59
2017-07-19T04:55:44.799Z,15.65
2017-07-19T04:56:53.683Z,15.68
2017-07-19T04:58:02.898Z,15.72
2017-07-19T04:59:12.755Z,15.69
2017-07-19T05:00:22.932Z,15.69
2017-07-19T05:01:32.157Z,15.78
2017-07-19T05:02:42.023Z,15.78
2017-07-19T05:03:50.911Z,15.87
2017-07-19T05:05:01.547Z,15.82
2017-07-19T05:06:11.738Z,15.9
2017-07-19T05:07:20.995Z,15.86
2017-07-19T05:08:30.537Z,15.89
2017-07-19T05:09:39.757Z,15.86
2017-07-19T05:10:49.634Z,15.92
2017-07-19T05:11:58.668Z,15.9
2017-07-19T05:13:08.200Z,15.92
2017-07-19T05:14:17.094Z,15.97
2017-07-19T05:15:26.633Z,16.02
2017-07-19T05:16:35.850Z,15.97
2017-07-19T05:17:44.746Z,15.93
2017-07-19T05:18:53.641Z,16.17
2017-07-19T05:20:03.213Z,16.04
2017-07-19T05:21:12.428Z,16.05
2017-07-19T05:22:21.634Z,16.14
2017-07-19T05:23:31.267Z,16.11
2017-07-19T05:24:40.157Z,16.15
2017-07-19T05:25:49.692Z,16.11
2017-07-19T05:26:58.899Z,16.08
2017-07-19T05:28:08.782Z,16.24
2017-07-19T05:29:18.673Z,16.24
2017-07-19T05:30:28.210Z,16.3
2017-07-19T05:31:38.075Z,16.24
2017-07-19T05:32:47.285Z,16.27
2017-07-19T05:33:56.816Z,16.34
2017-07-19T05:35:05.702Z,16.28
2017-07-19T05:36:15.894Z,16.33
2017-07-19T05:37:25.751Z,16.38
2017-07-19T05:38:35.282Z,16.45
2017-07-19T05:39:45.144Z,16.5
2017-07-19T05:40:54.032Z,16.5
2017-07-19T05:42:03.241Z,16.42
2017-07-19T05:43:12.774Z,16.49
2017-07-19T05:44:22.355Z,16.63
2017-07-19T05:45:31.242Z,16.6
2017-07-19T05:46:40.127Z,16.63
2017-07-19T05:47:49.337Z,16.66
2017-07-19T05:48:58.872Z,16.68
2017-07-19T05:50:08.409Z,16.71
2017-07-19T05:51:17.942Z,16.75
2017-07-19T05:52:28.124Z,16.83
2017-07-19T05:53:37.333Z,16.85
2017-07-19T05:54:46.693Z,16.89
2017-07-19T05:55:56.225Z,16.93
2017-07-19T05:57:05.761Z,16.91
2017-07-19T05:58:14.971Z,16.97
2017-07-19T05:59:24.503Z,16.91
2017-07-19T06:00:33.535Z,17
2017-07-19T06:01:43.075Z,17.03
2017-07-19T06:02:52.284Z,16.97
2017-07-19T06:04:01.499Z,17.04
2017-07-19T06:05:11.039Z,17.12
2017-07-19T06:06:20.246Z,17.18
2017-07-19T06:07:29.777Z,17.18
2017-07-19T06:08:39.004Z,17.31
2017-07-19T06:09:48.544Z,17.28
2017-07-19T06:10:58.073Z,17.37
2017-07-19T06:12:08.265Z,17.38
2017-07-19T06:13:17.153Z,17.34
2017-07-19T06:14:26.038Z,17.41
2017-07-19T06:15:35.572Z,17.41
2017-07-19T06:16:44.798Z,17.51
2017-07-19T06:17:53.705Z,17.58
2017-07-19T06:19:03.596Z,17.52
2017-07-19T06:20:13.363Z,17.64
2017-07-19T06:21:22.676Z,17.66
2017-07-19T06:22:31.891Z,17.62
2017-07-19T06:23:41.476Z,17.68
2017-07-19T06:24:50.364Z,17.77
2017-07-19T06:25:59.903Z,17.87
2017-07-19T06:27:09.114Z,17.96
2017-07-19T06:28:18.646Z,18.02
2017-07-19T06:29:28.331Z,18.07
2017-07-19T06:30:37.230Z,18.1
2017-07-19T06:31:46.785Z,18.21
2017-07-19T06:32:56.337Z,18.29
2017-07-19T06:34:05.878Z,18.11
2017-07-19T06:35:15.617Z,18.18
2017-07-19T06:36:25.156Z,18.29
2017-07-19T06:37:34.692Z,18.3
2017-07-19T06:38:43.919Z,18.37
2017-07-19T06:39:53.154Z,18.42
2017-07-19T06:41:02.051Z,18.45
2017-07-19T06:42:11.586Z,18.45
2017-07-19T06:43:20.494Z,18.51
2017-07-19T06:44:30.028Z,18.5
2017-07-19T06:45:38.936Z,18.57
2017-07-19T06:46:47.929Z,18.45
2017-07-19T06:47:57.880Z,18.54
2017-07-19T06:49:07.159Z,18.58
2017-07-19T06:50:17.013Z,18.58
2017-07-19T06:51:25.898Z,18.69
2017-07-19T06:52:35.713Z,18.78
2017-07-19T06:53:45.574Z,18.82
2017-07-19T06:54:55.160Z,18.82
2017-07-19T06:56:05.018Z,18.95
2017-07-19T06:57:13.910Z,18.95
2017-07-19T06:58:23.778Z,18.95
2017-07-19T06:59:33.637Z,18.98
2017-07-19T07:00:42.523Z,18.95
2017-07-19T07:01:52.383Z,19.02
2017-07-19T07:03:01.270Z,19.1
2017-07-19T07:04:11.013Z,19.19
2017-07-19T07:05:20.553Z,19.23
2017-07-19T07:06:29.448Z,19.32
2017-07-19T07:07:39.047Z,19.39
2017-07-19T07:08:48.337Z,19.39
2017-07-19T07:09:58.172Z,19.54
2017-07-19T07:11:07.394Z,19.59
2017-07-19T07:12:17.252Z,19.56
2017-07-19T07:13:26.463Z,19.63
2017-07-19T07:14:36.005Z,19.59
2017-07-19T07:15:45.368Z,19.68
2017-07-19T07:16:54.924Z,19.74
2017-07-19T07:18:04.142Z,19.73
2017-07-19T07:19:13.370Z,19.76
2017-07-19T07:20:22.905Z,19.84
2017-07-19T07:21:31.998Z,19.74
2017-07-19T07:22:41.542Z,19.87
2017-07-19T07:23:50.767Z,19.96
2017-07-19T07:25:00.012Z,19.95
2017-07-19T07:26:09.554Z,20.01
2017-07-19T07:27:19.131Z,20.05
2017-07-19T07:28:28.389Z,20.08
2017-07-19T07:29:37.922Z,20.14
2017-07-19T07:30:47.138Z,20.14
2017-07-19T07:31:56.986Z,20.11
2017-07-19T07:33:07.068Z,20.17
2017-07-19T07:34:16.296Z,20.18
2017-07-19T07:35:25.833Z,20.29
2017-07-19T07:36:35.364Z,20.36
2017-07-19T07:37:44.902Z,20.29
2017-07-19T07:38:53.846Z,20.48
2017-07-19T07:40:03.405Z,20.39
2017-07-19T07:41:12.673Z,20.39
2017-07-19T07:42:22.691Z,20.41
2017-07-19T07:43:31.671Z,20.47
2017-07-19T07:44:41.456Z,20.48
2017-07-19T07:45:50.429Z,20.5
2017-07-19T07:46:59.786Z,20.55
2017-07-19T07:48:09.507Z,20.73
2017-07-19T07:49:18.894Z,20.66
2017-07-19T07:50:28.081Z,20.72
2017-07-19T07:51:37.368Z,20.72
2017-07-19T07:52:46.327Z,20.85
2017-07-19T07:53:55.311Z,20.88
2017-07-19T07:55:05.347Z,20.95
2017-07-19T07:56:15.206Z,21.13
2017-07-19T07:57:24.553Z,21.06
2017-07-19T07:58:33.581Z,21.12
2017-07-19T07:59:43.564Z,21.24
2017-07-19T08:00:53.247Z,21.24
2017-07-19T08:02:03.500Z,21.29
2017-07-19T08:03:12.478Z,21.31
2017-07-19T08:04:22.168Z,21.32
2017-07-19T08:05:31.489Z,21.42
2017-07-19T08:06:40.856Z,21.54
2017-07-19T08:07:50.460Z,21.54
2017-07-19T08:08:59.467Z,21.49
2017-07-19T08:10:09.443Z,21.61
2017-07-19T08:11:18.415Z,21.58
2017-07-19T08:12:27.755Z,21.71
2017-07-19T08:13:36.917Z,21.77
2017-07-19T08:14:46.240Z,21.88
2017-07-19T08:15:55.194Z,21.9
2017-07-19T08:17:04.495Z,21.91
2017-07-19T08:18:14.419Z,22.06
2017-07-19T08:19:23.740Z,21.99
2017-07-19T08:20:33.600Z,22.1
2017-07-19T08:21:42.820Z,22.18
2017-07-19T08:22:51.716Z,22.2
2017-07-19T08:24:00.930Z,22.3
2017-07-19T08:25:10.745Z,22.33
2017-07-19T08:26:20.305Z,22.39
2017-07-19T08:27:29.842Z,22.4
2017-07-19T08:28:39.750Z,22.49
2017-07-19T08:29:48.637Z,22.46
2017-07-19T08:30:57.897Z,22.47
2017-07-19T08:32:07.769Z,22.52
2017-07-19T08:33:16.988Z,22.61
2017-07-19T08:34:26.857Z,22.58
2017-07-19T08:35:36.393Z,22.67
2017-07-19T08:36:45.500Z,22.76
2017-07-19T08:37:54.734Z,22.76
2017-07-19T08:39:03.945Z,22.75
2017-07-19T08:40:14.130Z,22.76
2017-07-19T08:41:23.669Z,22.76
2017-07-19T08:42:33.704Z,22.9
2017-07-19T08:43:43.573Z,22.75
2017-07-19T08:44:52.807Z,22.82
2017-07-19T08:46:02.041Z,22.85
2017-07-19T08:47:11.907Z,22.94
2017-07-19T08:48:21.325Z,22.92
2017-07-19T08:49:30.540Z,22.92
2017-07-19T08:50:40.110Z,23
2017-07-19T08:51:49.338Z,23
2017-07-19T08:52:58.875Z,23.13
2017-07-19T08:54:08.568Z,23.1
2017-07-19T08:55:18.152Z,23.15
2017-07-19T08:56:28.061Z,23.19
2017-07-19T08:57:37.275Z,23.22
2017-07-19T08:58:46.492Z,23.22
2017-07-19T08:59:55.805Z,23.38
2017-07-19T09:01:05.357Z,23.19
2017-07-19T09:02:14.584Z,23.4
2017-07-19T09:03:24.122Z,23.32
2017-07-19T09:04:33.996Z,23.48
2017-07-19T09:05:43.618Z,23.54
2017-07-19T09:06:52.847Z,23.65
2017-07-19T09:08:02.062Z,23.55
2017-07-19T09:09:11.276Z,23.5
2017-07-19T09:10:20.166Z,23.58
2017-07-19T09:11:29.532Z,23.72
2017-07-19T09:12:38.748Z,23.73
2017-07-19T09:13:48.292Z,23.88
2017-07-19T09:14:57.195Z,23.83
2017-07-19T09:16:06.418Z,23.97
2017-07-19T09:17:16.111Z,23.9
2017-07-19T09:18:25.661Z,23.94
2017-07-19T09:19:34.555Z,23.95
2017-07-19T09:20:43.770Z,23.97
2017-07-19T09:21:53.320Z,23.98
2017-07-19T09:23:02.638Z,23.98
2017-07-19T09:24:11.855Z,24.02
2017-07-19T09:25:21.395Z,24.16
2017-07-19T09:26:31.256Z,24.15
2017-07-19T09:27:41.119Z,24.2
2017-07-19T09:28:51.143Z,24.34
2017-07-19T09:30:00.713Z,24.45
2017-07-19T09:31:10.638Z,24.5
2017-07-19T09:32:20.136Z,24.53
2017-07-19T09:33:29.355Z,24.55
2017-07-19T09:34:38.947Z,24.5
2017-07-19T09:35:48.488Z,24.52
2017-07-19T09:36:58.356Z,24.65
2017-07-19T09:38:07.285Z,24.73
2017-07-19T09:39:16.506Z,24.8
2017-07-19T09:40:25.819Z,24.81
2017-07-19T09:41:35.362Z,24.76
2017-07-19T09:42:44.256Z,24.78
2017-07-19T09:43:53.807Z,24.78
2017-07-19T09:45:03.670Z,24.77
2017-07-19T09:46:13.585Z,24.85
2017-07-19T09:47:22.805Z,24.98
2017-07-19T09:48:32.350Z,25
2017-07-19T09:49:41.575Z,25.1
2017-07-19T09:50:50.818Z,25.03
2017-07-19T09:52:00.337Z,25.08
2017-07-19T09:53:09.894Z,25.15
2017-07-19T09:54:19.428Z,25.24
2017-07-19T09:55:28.661Z,25.33
2017-07-19T09:56:38.855Z,25.3
2017-07-19T09:57:48.148Z,25.3
2017-07-19T09:58:57.386Z,25.4
2017-07-19T10:00:06.610Z,25.42
2017-07-19T10:01:16.148Z,25.28
2017-07-19T10:02:25.684Z,25.42
2017-07-19T10:03:35.372Z,25.42
2017-07-19T10:04:44.921Z,25.52
2017-07-19T10:05:53.837Z,25.54
2017-07-19T10:07:03.371Z,25.55
2017-07-19T10:08:12.909Z,25.64
2017-07-19T10:09:22.455Z,25.65
2017-07-19T10:10:31.345Z,25.73
2017-07-19T10:11:40.893Z,25.75
2017-07-19T10:12:50.779Z,25.88
2017-07-19T10:14:00.061Z,25.9
2017-07-19T10:15:10.120Z,26.01
2017-07-19T10:16:19.761Z,26.02
2017-07-19T10:17:28.952Z,26.1
2017-07-19T10:18:38.524Z,26.05
2017-07-19T10:19:47.488Z,26.1
2017-07-19T10:20:57.259Z,26.17
2017-07-19T10:22:06.550Z,26.17
2017-07-19T10:23:16.440Z,26.17
2017-07-19T10:24:26.036Z,26.3
2017-07-19T10:25:35.663Z,26.2
2017-07-19T10:26:45.112Z,26.35
2017-07-19T10:27:54.379Z,26.4
2017-07-19T10:29:03.643Z,26.36
2017-07-19T10:30:13.236Z,26.4
2017-07-19T10:31:22.458Z,26.3
2017-07-19T10:32:32.160Z,26.4
2017-07-19T10:33:41.598Z,26.32
2017-07-19T10:34:51.213Z,26.44
2017-07-19T10:36:00.428Z,26.47
2017-07-19T10:37:09.666Z,26.6
2017-07-19T10:38:19.341Z,26.65
2017-07-19T10:39:28.632Z,26.6
2017-07-19T10:40:37.891Z,26.51
2017-07-19T10:41:47.801Z,26.62
2017-07-19T10:42:57.044Z,26.77
2017-07-19T10:44:06.157Z,26.62
2017-07-19T10:45:16.093Z,26.6
2017-07-19T10:46:25.644Z,26.65
2017-07-19T10:47:35.212Z,26.89
2017-07-19T10:48:45.470Z,26.92
2017-07-19T10:49:54.858Z,26.87
2017-07-19T10:51:04.099Z,26.89
2017-07-19T10:52:13.353Z,26.97
2017-07-19T10:53:22.638Z,27.02
2017-07-19T10:54:31.928Z,27.14
2017-07-19T10:55:42.100Z,27.07
2017-07-19T10:56:51.377Z,27.02
2017-07-19T10:58:00.324Z,27.06
2017-07-19T10:59:10.279Z,27.17
2017-07-19T11:00:19.559Z,27.21
2017-07-19T11:01:28.919Z,27.21
2017-07-19T11:02:37.862Z,27.24
2017-07-19T11:03:47.122Z,27.28
2017-07-19T11:04:56.708Z,27.4
2017-07-19T11:06:05.961Z,27.21
2017-07-19T11:07:15.530Z,27.36
2017-07-19T11:08:25.779Z,27.41
2017-07-19T11:09:35.351Z,27.47
2017-07-19T11:10:44.651Z,27.62
2017-07-19T11:11:54.266Z,27.69
2017-07-19T11:13:03.659Z,27.51
2017-07-19T11:14:12.969Z,27.66
2017-07-19T11:15:22.351Z,27.78
2017-07-19T11:16:31.617Z,27.43
2017-07-19T11:17:40.846Z,27.6
2017-07-19T11:18:50.431Z,27.7
2017-07-19T11:20:00.479Z,27.87
2017-07-19T11:21:10.113Z,27.96
2017-07-19T11:22:19.396Z,28
2017-07-19T11:23:28.686Z,28.02
2017-07-19T11:24:38.423Z,28.11
2017-07-19T11:25:48.042Z,28.19
2017-07-19T11:26:57.651Z,28.07
2017-07-19T11:28:07.275Z,28.17
2017-07-19T11:29:17.061Z,28.29
2017-07-19T11:30:26.462Z,28.27
2017-07-19T11:31:36.081Z,28.33
2017-07-19T11:32:45.371Z,28.44
2017-07-19T11:33:54.264Z,28.46
2017-07-19T11:35:03.830Z,28.54
2017-07-19T11:36:13.452Z,28.58
2017-07-19T11:37:22.731Z,28.54
2017-07-19T11:38:32.289Z,28.51
2017-07-19T11:39:41.586Z,28.46
2017-07-19T11:40:51.870Z,28.43
2017-07-19T11:42:01.675Z,28.64
2017-07-19T11:43:11.293Z,28.67
2017-07-19T11:44:20.869Z,28.76
2017-07-19T11:45:30.117Z,28.78
2017-07-19T11:46:39.073Z,28.74
2017-07-19T11:47:48.506Z,28.85
2017-07-19T11:48:57.445Z,28.67
2017-07-19T11:50:07.334Z,28.71
2017-07-19T11:51:16.276Z,28.89
2017-07-19T11:52:25.865Z,28.88
2017-07-19T11:53:34.968Z,29.06
2017-07-19T11:54:43.910Z,29.15
2017-07-19T11:55:53.209Z,29.16
2017-07-19T11:57:03.153Z,29.09
2017-07-19T11:58:12.782Z,28.89
2017-07-19T11:59:22.402Z,28.81
2017-07-19T12:00:31.964Z,28.78
2017-07-19T12:01:41.544Z,28.68
2017-07-19T12:02:50.811Z,28.8
2017-07-19T12:04:00.418Z,28.76
2017-07-19T12:05:10.390Z,28.89
2017-07-19T12:06:19.814Z,29
2017-07-19T12:07:29.072Z,29.16
2017-07-19T12:08:38.371Z,29.19
2017-07-19T12:09:47.710Z,29.15
2017-07-19T12:10:57.133Z,29.16
2017-07-19T12:12:07.464Z,29.14
2017-07-19T12:13:16.484Z,29.41
2017-07-19T12:14:25.941Z,29.31
2017-07-19T12:15:35.199Z,29.45
2017-07-19T12:16:44.251Z,29.27
2017-07-19T12:17:53.215Z,29.27
2017-07-19T12:19:03.141Z,29.34
2017-07-19T12:20:13.076Z,29.36
2017-07-19T12:21:22.721Z,29.46
2017-07-19T12:22:32.400Z,29.48
2017-07-19T12:23:42.133Z,29.57
2017-07-19T12:24:51.767Z,29.58
2017-07-19T12:26:00.745Z,29.7
2017-07-19T12:27:10.044Z,29.7
2017-07-19T12:28:19.783Z,29.73
2017-07-19T12:29:28.698Z,29.78
2017-07-19T12:30:38.279Z,29.61
2017-07-19T12:31:47.902Z,29.71
2017-07-19T12:32:57.169Z,29.68
2017-07-19T12:34:06.918Z,29.73
2017-07-19T12:35:16.552Z,29.87
2017-07-19T12:36:25.547Z,29.89
2017-07-19T12:37:35.171Z,29.71
2017-07-19T12:38:44.515Z,29.63
2017-07-19T12:39:54.149Z,29.65
2017-07-19T12:41:03.430Z,29.8
2017-07-19T12:42:13.000Z,29.85
2017-07-19T12:43:22.572Z,29.82
2017-07-19T12:44:32.138Z,29.78
2017-07-19T12:45:41.307Z,29.85
2017-07-19T12:46:50.549Z,29.9
2017-07-19T12:48:00.195Z,29.95
2017-07-19T12:49:09.820Z,30.02
2017-07-19T12:50:19.459Z,30.05
2017-07-19T12:51:28.832Z,30.11
2017-07-19T12:52:37.762Z,30.26
2017-07-19T12:53:47.347Z,30.26
2017-07-19T12:54:56.271Z,30.24
2017-07-19T12:56:05.553Z,30.22
2017-07-19T12:57:14.503Z,30.37
2017-07-19T12:58:24.131Z,30.37
2017-07-19T12:59:34.070Z,30.46
2017-07-19T13:00:43.327Z,30.45
2017-07-19T13:01:52.942Z,30.49
2017-07-19T13:03:01.899Z,30.38
2017-07-19T13:04:11.858Z,30.23
2017-07-19T13:05:22.164Z,30.24
2017-07-19T13:06:32.089Z,30.2
2017-07-19T13:07:41.753Z,30.23
2017-07-19T13:08:50.847Z,30.17
2017-07-19T13:10:00.457Z,30.26
2017-07-19T13:11:09.712Z,30.11
2017-07-19T13:12:19.965Z,30.11
2017-07-19T13:13:29.548Z,30.22
2017-07-19T13:14:39.043Z,30.47
2017-07-19T13:15:48.316Z,30.53
2017-07-19T13:16:57.922Z,30.51
2017-07-19T13:18:07.829Z,30.73
2017-07-19T13:19:17.804Z,30.69
2017-07-19T13:20:26.777Z,30.64
2017-07-19T13:21:36.727Z,30.55
2017-07-19T13:22:46.326Z,30.75
2017-07-19T13:23:56.220Z,30.7
2017-07-19T13:25:05.853Z,30.82
2017-07-19T13:26:14.863Z,30.62
2017-07-19T13:27:24.493Z,30.45
2017-07-19T13:28:33.784Z,30.55
2017-07-19T13:29:43.104Z,30.57
2017-07-19T13:30:52.369Z,30.54
2017-07-19T13:32:01.785Z,30.51
2017-07-19T13:33:11.370Z,30.62
2017-07-19T13:34:20.648Z,30.34
2017-07-19T13:35:30.258Z,30.38
2017-07-19T13:36:39.887Z,30.49
2017-07-19T13:37:49.754Z,30.32
2017-07-19T13:38:59.372Z,30.34
2017-07-19T13:40:09.292Z,30.61
2017-07-19T13:41:19.201Z,30.77
2017-07-19T13:42:28.480Z,30.99
2017-07-19T13:43:37.961Z,31.09
2017-07-19T13:44:48.106Z,31.17
2017-07-19T13:45:57.726Z,31.19
2017-07-19T13:47:07.622Z,31.28
2017-07-19T13:48:16.603Z,31.32
2017-07-19T13:49:25.982Z,31.26
2017-07-19T13:50:35.960Z,31.31
2017-07-19T13:51:45.233Z,31.47
2017-07-19T13:52:54.800Z,31.53
2017-07-19T13:54:04.740Z,31.66
2017-07-19T13:55:13.826Z,31.78
2017-07-19T13:56:23.496Z,31.5
2017-07-19T13:57:32.798Z,31.35
2017-07-19T13:58:42.417Z,31.14
2017-07-19T13:59:52.027Z,31.32
2017-07-19T14:01:02.221Z,31.54
2017-07-19T14:02:11.895Z,31.66
2017-07-19T14:03:21.714Z,31.89
2017-07-19T14:04:31.334Z,31.69
2017-07-19T14:05:41.323Z,31.68
2017-07-19T14:06:50.943Z,31.91
2017-07-19T14:08:00.590Z,31.85
2017-07-19T14:09:09.877Z,32.06
2017-07-19T14:10:19.846Z,32.25
2017-07-19T14:11:29.791Z,32.18
2017-07-19T14:12:39.249Z,32.22
2017-07-19T14:13:48.847Z,32.28
2017-07-19T14:14:58.432Z,32.3
2017-07-19T14:16:07.720Z,32.44
2017-07-19T14:17:17.658Z,32.26
2017-07-19T14:18:27.061Z,32.52
2017-07-19T14:19:36.677Z,32.52
2017-07-19T14:20:45.993Z,32.66
2017-07-19T14:21:55.598Z,32.82
2017-07-19T14:23:04.582Z,32.62
2017-07-19T14:24:14.619Z,32.81
2017-07-19T14:25:23.883Z,33.07
2017-07-19T14:26:32.792Z,33.03
2017-07-19T14:27:42.031Z,33.04
2017-07-19T14:28:50.974Z,33.15
2017-07-19T14:30:00.957Z,32.78
2017-07-19T14:31:10.566Z,32.79
2017-07-19T14:32:20.161Z,32.74
2017-07-19T14:33:29.446Z,32.4
2017-07-19T14:34:38.744Z,32.28
2017-07-19T14:35:48.300Z,32.47
2017-07-19T14:36:57.885Z,32.48
2017-07-19T14:38:07.175Z,32.41
2017-07-19T14:39:16.141Z,32.7
2017-07-19T14:40:26.413Z,32.84
2017-07-19T14:41:36.308Z,33.03
2017-07-19T14:42:45.583Z,33.04
2017-07-19T14:43:55.183Z,33.18
2017-07-19T14:45:05.483Z,33.06
2017-07-19T14:46:15.447Z,33.01
2017-07-19T14:47:24.886Z,33.28
2017-07-19T14:48:34.491Z,33.6
2017-07-19T14:49:44.409Z,33.53
2017-07-19T14:50:54.644Z,33.5
2017-07-19T14:52:03.961Z,33.31
2017-07-19T14:53:13.137Z,33.01
2017-07-19T14:54:22.973Z,32.78
2017-07-19T14:55:32.898Z,32.96
2017-07-19T14:56:42.858Z,32.82
2017-07-19T14:57:52.763Z,32.66
2017-07-19T14:59:02.937Z,32.6